Battersby, United Kingdom
Current Conditions -  °F | °C
As of 9:20 PM on Monday 20 Oct 2014 (Local Time) from EGNV Reporting Station
Few Clouds Few Clouds  
Wind Chill: 52°   Ceiling: Unl
Heat Index: 52°   Visibility: 6mi
Dew Point: 48°   Wind: 9mph
Humidity: 88%   Direction: 180°S
Pressure: 29.71"   Gusts: NA
Location:  54.47°N, 1.19°W
Report Text: EGNV 202020Z 18008KT 9999 FEW021 11/09 Q1006
Loading
Personal Weather Stations






























Interactive Weather Map
Tropical Storm Tracking
New forecast layout! Learn more

10-Day Weather Forecast

Advertisements
Track Severe Weather on mobile